Valenciennes-Denain Airfield

LFAV · Hauts-de-France, 法国

2022年10月5日

时间 代码 天气 温度 能见度 天花板 METAR/SPECI
19:00
V
19 °C 10 km+ 3.700 ft 200° 200° 13 kt METAR LFQQ 051700Z AUTO 20013KT 9999 OVC037 19/13 Q1015 TEMPO 27017G30KT 3000 RA BKN009 BKN015
18:30
V
19 °C 10 km+ 3.500 ft 200° 200° 13 kt METAR LFQQ 051630Z AUTO 20013KT 9999 BKN035 OVC060 19/13 Q1015 TEMPO 27017G30KT 3000 RA BKN009 BKN015
18:00
V
19 °C 10 km+ 3.800 ft 200° 200° 14 kt METAR LFQQ 051600Z AUTO 20014KT 9999 BKN038 OVC052 19/13 Q1015 BECMG 21016G28KT
17:30
V
19 °C 10 km+ 3.400 ft 200° 200° 13 kt METAR LFQQ 051530Z AUTO 20013KT 9999 OVC034 19/13 Q1015 BECMG 21016G28KT
17:00
V
19 °C 10 km+ 3.500 ft 210° 210° 15 - 25 kt METAR LFQQ 051500Z AUTO 21015G25KT 180V240 9999 OVC035 19/13 Q1015 NOSIG
16:30
V
18 °C 10 km+ 3.500 ft 210° 210° 17 kt METAR LFQQ 051430Z AUTO 21017KT 9999 OVC035 18/12 Q1015 BECMG 21016G28KT
16:00
V
18 °C 10 km+ 3.300 ft 200° 200° 17 kt METAR LFQQ 051400Z AUTO 20017KT 9999 BKN033 OVC039 18/12 Q1015 BECMG 21016G28KT
15:30
V
18 °C 10 km+ 3.200 ft 200° 200° 16 kt METAR LFQQ 051330Z AUTO 20016KT 9999 BKN032 OVC040 18/12 Q1015 BECMG 21016G28KT
15:00
V
17 °C 10 km+ 3.100 ft 210° 210° 13 kt METAR LFQQ 051300Z AUTO 21013KT 9999 OVC031 17/12 Q1015 BECMG 21016G28KT
14:30
M
17 °C 10 km+ 2.900 ft 210° 210° 15 kt METAR LFQQ 051230Z AUTO 21015KT 9999 BKN029 OVC034 17/12 Q1015 BECMG 21016G28KT
14:00
M
17 °C 10 km+ 2.900 ft 210° 210° 19 kt METAR LFQQ 051200Z AUTO 21019KT 9999 OVC029 17/11 Q1015 BECMG 21016G28KT
13:30
M
18 °C 10 km+ 2.900 ft 210° 210° 21 kt METAR LFQQ 051130Z AUTO 21021KT 9999 OVC029 18/12 Q1015 BECMG 23015G25KT
13:00
M
17 °C 10 km+ 2.600 ft 200° 200° 16 - 28 kt METAR LFQQ 051100Z AUTO 20016G28KT 9999 OVC026 17/12 Q1015 NOSIG
12:30
M
17 °C 10 km+ 2.300 ft 200° 200° 18 kt METAR LFQQ 051030Z AUTO 20018KT 9999 OVC023 17/12 Q1015 BECMG 23015G25KT
12:00
M
17 °C 10 km+ 2.500 ft 200° 200° 16 - 26 kt METAR LFQQ 051000Z AUTO 20016G26KT 9999 OVC025 17/12 Q1015 NOSIG
11:30
M
17 °C 10 km+ 2.900 ft 190° 190° 15 kt METAR LFQQ 050930Z AUTO 19015KT 9999 FEW021 OVC029 17/12 Q1015 BECMG 23015G25KT
11:00
M
16 °C 10 km+ 2.900 ft 180° 180° 13 kt METAR LFQQ 050900Z AUTO 18013KT 9999 OVC029 16/13 Q1015 BECMG 23015G25KT
10:30
V
16 °C 10 km+ 3.000 ft 180° 180° 11 kt METAR LFQQ 050830Z AUTO 18011KT 9999 OVC030 16/13 Q1015 BECMG 23015G25KT
10:00
V
15 °C 10 km+ 3.000 ft 180° 180° 10 kt METAR LFQQ 050800Z AUTO 18010KT 9999 OVC030 15/13 Q1015 TEMPO BKN012 BECMG 23015G25KT
09:30
V
15 °C 10 km+ 3.100 ft 180° 180° 10 kt METAR LFQQ 050730Z AUTO 18010KT 9999 OVC031 15/12 Q1015 TEMPO BKN012 BECMG 23015G25KT
09:00
V
15 °C 10 km+ 3.300 ft 190° 190° 8 kt METAR LFQQ 050700Z AUTO 19008KT 9999 OVC033 15/12 Q1016 TEMPO BKN012
08:30
V
15 °C 10 km+ 3.300 ft 190° 190° 11 kt METAR LFQQ 050630Z AUTO 19011KT 9999 OVC033 15/12 Q1015 TEMPO BKN012
08:00
V
15 °C 10 km+ 3.200 ft 190° 190° 10 kt METAR LFQQ 050600Z AUTO 19010KT 9999 OVC032 15/12 Q1015 TEMPO BKN012
07:30
M
15 °C 10 km+ 2.900 ft 200° 200° 10 kt METAR LFQQ 050530Z AUTO 20010KT 9999 OVC029 15/12 Q1015 TEMPO BKN009 BKN012
07:00
M
16 °C 10 km+ 2.800 ft 200° 200° 14 kt METAR LFQQ 050500Z AUTO 20014KT 9999 OVC028 16/11 Q1016 TEMPO BKN009 BKN012
06:30
M
15 °C 10 km+ 2.800 ft 200° 200° 12 kt METAR LFQQ 050430Z AUTO 20012KT 9999 OVC028 15/11 Q1016 TEMPO BKN009 BKN012
06:00
V
15 °C 10 km+ 3.000 ft 190° 190° 11 kt METAR LFQQ 050400Z AUTO 19011KT 9999 OVC030 15/11 Q1016 NOSIG
05:30
V
15 °C 10 km+ 3.100 ft 180° 180° 10 kt METAR LFQQ 050330Z AUTO 18010KT 9999 OVC031 15/11 Q1016 NOSIG
05:00
M
15 °C 10 km+ 2.900 ft 180° 180° 9 kt METAR LFQQ 050300Z AUTO 18009KT 9999 OVC029 15/11 Q1016 NOSIG
04:30
M
15 °C 10 km+ 2.800 ft 190° 190° 9 kt METAR LFQQ 050230Z AUTO 19009KT 9999 OVC028 15/11 Q1017 NOSIG
04:00
M
15 °C 10 km+ 2.700 ft 200° 200° 7 kt METAR LFQQ 050200Z AUTO 20007KT 9999 OVC027 15/12 Q1017 NOSIG
03:30
M
15 °C 10 km+ 2.700 ft 200° 200° 10 kt METAR LFQQ 050130Z AUTO 20010KT 9999 OVC027 15/12 Q1017 NOSIG
03:00
V
15 °C 10 km+ 3.000 ft 180° 180° 8 kt METAR LFQQ 050100Z AUTO 18008KT 9999 OVC030 15/12 Q1017 NOSIG
02:30
M
15 °C 10 km+ 2.900 ft 190° 190° 6 kt METAR LFQQ 050030Z AUTO 19006KT 9999 OVC029 15/13 Q1018 NOSIG
02:00
M
15 °C 10 km+ 2.800 ft 190° 190° 6 kt METAR LFQQ 050000Z AUTO 19006KT 9999 OVC028 15/12 Q1018 NOSIG
01:30
V
15 °C 10 km+ 3.000 ft 190° 190° 7 kt METAR LFQQ 042330Z AUTO 19007KT 9999 OVC030 15/13 Q1018 NOSIG
01:00
V
15 °C 10 km+ 3.400 ft 190° 190° 6 kt METAR LFQQ 042300Z AUTO 19006KT 9999 OVC034 15/13 Q1018 NOSIG
00:30
V
15 °C 10 km+ 3.300 ft 190° 190° 5 kt METAR LFQQ 042230Z AUTO 19005KT 9999 FEW026 OVC033 15/13 Q1018 NOSIG
00:00
M
15 °C 10 km+ 2.300 ft 200° 200° 5 kt METAR LFQQ 042200Z AUTO 20005KT 9999 BKN023 OVC031 15/13 Q1019 NOSIG

2022年10月4日

时间 代码 天气 温度 能见度 天花板 METAR/SPECI
23:30
V
15 °C 10 km+ 3.300 ft 210° 210° 5 kt METAR LFQQ 042130Z AUTO 21005KT 9999 FEW021 OVC033 15/13 Q1019 NOSIG
23:00
V
15 °C 10 km+ 3.300 ft 200° 200° 4 kt METAR LFQQ 042100Z AUTO 20004KT 9999 FEW024 OVC033 15/13 Q1019 NOSIG
22:30
V
16 °C 10 km+ 3.300 ft 220° 220° 4 kt METAR LFQQ 042030Z AUTO 22004KT 9999 FEW027 OVC033 16/13 Q1019 NOSIG
22:00
V
16 °C 10 km+ 3.100 ft 220° 220° 5 kt METAR LFQQ 042000Z AUTO 22005KT 9999 OVC031 16/13 Q1019 NOSIG
21:30
V
16 °C 10 km+ 3.500 ft 180° 180° 4 kt METAR LFQQ 041930Z AUTO 18004KT 9999 FEW028 OVC035 16/13 Q1019 NOSIG
21:00
V
16 °C 10 km+ 3.600 ft 180° 180° 4 kt METAR LFQQ 041900Z AUTO 18004KT 9999 OVC036 16/13 Q1019 NOSIG
20:30
V
16 °C 10 km+ 3.700 ft 180° 180° 4 kt METAR LFQQ 041830Z AUTO 18004KT 9999 OVC037 16/13 Q1019 NOSIG
20:00
V
16 °C 10 km+ 3.700 ft 190° 190° 5 kt METAR LFQQ 041800Z AUTO 19005KT 9999 FEW012 OVC037 16/13 Q1019 NOSIG
19:30
V
17 °C 10 km+ 3.900 ft 190° 190° 7 kt METAR LFQQ 041730Z AUTO 19007KT 9999 SCT031 OVC039 17/13 Q1019 NOSIG
19:00
V
17 °C 10 km+ 3.600 ft 190° 190° 9 kt METAR LFQQ 041700Z AUTO 19009KT 9999 OVC036 17/13 Q1019 NOSIG
18:30
V
17 °C 10 km+ 3.700 ft 190° 190° 9 kt METAR LFQQ 041630Z AUTO 19009KT 9999 FEW027 OVC037 17/13 Q1019 NOSIG
18:00
V
18 °C 10 km+ 3.500 ft 190° 190° 9 kt METAR LFQQ 041600Z AUTO 19009KT 9999 OVC035 18/13 Q1019 NOSIG
17:30
V
18 °C 10 km+ 3.600 ft 180° 180° 10 kt METAR LFQQ 041530Z AUTO 18010KT 9999 FEW029 BKN036 18/13 Q1019 NOSIG
17:00
V
18 °C 10 km+ - 180° 180° 12 kt METAR LFQQ 041500Z AUTO 18012KT 9999 SCT028 SCT035 18/13 Q1019 NOSIG
16:30
V
19 °C 10 km+ - 180° 180° 10 kt METAR LFQQ 041430Z AUTO 18010KT 9999 SCT025 SCT031 19/13 Q1019 NOSIG
16:00
V
19 °C 10 km+ - 190° 190° 10 kt METAR LFQQ 041400Z AUTO 19010KT 150V210 9999 FEW022 19/13 Q1019 NOSIG
15:30
V
18 °C 10 km+ - 180° 180° 10 kt METAR LFQQ 041330Z AUTO 18010KT 150V210 9999 FEW022 18/13 Q1019 NOSIG
15:00
V
18 °C 10 km+ - 190° 190° 9 kt METAR LFQQ 041300Z AUTO 19009KT 150V220 9999 FEW021 18/13 Q1020 NOSIG
14:30
V
18 °C 10 km+ - 180° 180° 10 kt METAR LFQQ 041230Z AUTO 18010KT 150V220 9999 FEW019 18/13 Q1020 NOSIG
14:00
V
17 °C 10 km+ - 190° 190° 11 kt METAR LFQQ 041200Z AUTO 19011KT 9999 FEW019 17/12 Q1020 NOSIG
13:30
V
17 °C 10 km+ - 190° 190° 10 kt METAR LFQQ 041130Z AUTO 19010KT 160V220 9999 SCT016 17/12 Q1020 NOSIG
13:00
M
16 °C 10 km+ 1.300 ft 190° 190° 11 kt METAR LFQQ 041100Z AUTO 19011KT 9999 BKN013 16/12 Q1020 BECMG NSC
12:30
M
15 °C 10 km+ 1.000 ft 180° 180° 8 kt METAR LFQQ 041030Z AUTO 18008KT 150V220 9999 BKN010 BKN230 15/12 Q1020 BECMG NSC
12:00
I
13 °C 10 km+ 900 ft 190° 190° 10 kt METAR LFQQ 041000Z AUTO 19010KT 9999 BKN009 BKN013 BKN230 13/11 Q1020 BECMG NSC
11:30
V
12 °C 10 km+ - 180° 180° 8 kt METAR LFQQ 040930Z AUTO 18008KT 9999 SCT007 SCT250 12/11 Q1020 NOSIG
11:00
V
12 °C 10 km+ - 180° 180° 8 kt METAR LFQQ 040900Z AUTO 18008KT 9999 FEW009 12/10 Q1021 TEMPO OVC003
10:30
V
11 °C 9 km - 180° 180° 7 kt METAR LFQQ 040830Z AUTO 18007KT 150V210 9000 FEW005 11/10 Q1021 TEMPO OVC003
10:00
M
10 °C 7 km 23.000 ft 180° 180° 6 kt METAR LFQQ 040800Z AUTO 18006KT 7000 FEW003 BKN230 10/09 Q1021 TEMPO OVC003
09:30
M
9 °C 7 km 22.000 ft 170° 170° 6 kt METAR LFQQ 040730Z AUTO 17006KT 7000 FEW003 BKN220 09/09 Q1021 TEMPO OVC003
09:00
I
8 °C 3,4 km - 140° 140° 5 kt METAR LFQQ 040700Z AUTO 14005KT 3400 BR FEW001 08/08 Q1021
08:30
L
7 °C 300 m - 170° 170° 2 kt METAR LFQQ 040630Z AUTO 17002KT 0700 0300 R26/0400N R08/1300U FG FEW004 07/07 Q1021
08:00
L
7 °C 400 m - 180° 180° 3 kt METAR LFQQ 040600Z AUTO 18003KT 0550 0400 R26/0550N R08/0650D FG SCT004 SCT220 07/07 Q1021 BECMG 0200 FG VV///
07:30
L
7 °C 550 m - Var Var 2 kt METAR LFQQ 040530Z AUTO VRB02KT 1100 0550 R26/0700D R08/0800U BCFG SCT003 SCT240 07/07 Q1021 BECMG 0200 FG VV///
07:00
M
7 °C 5 km - 160° 160° 5 kt METAR LFQQ 040500Z AUTO 16005KT 5000 BR NSC 07/07 Q1021 BECMG 0200 FG VV///
06:30
I
7 °C 4,5 km - 150° 150° 5 kt METAR LFQQ 040430Z AUTO 15005KT 4500 BR NSC 07/07 Q1021 BECMG 0200 FG VV///
06:00
I
7 °C 2,8 km - 140° 140° 4 kt METAR LFQQ 040400Z AUTO 14004KT 2800 BR NSC 07/07 Q1021 BECMG 0200 FG VV///
05:30
L
7 °C 1,3 km - 150° 150° 4 kt METAR LFQQ 040330Z AUTO 15004KT 2200 1300 R26/2200D R08/P5000 BR FEW005 07/07 Q1021 BECMG 0200 FG VV///
05:00
L
7 °C 800 m - 140° 140° 3 kt METAR LFQQ 040300Z AUTO 14003KT 2000 0800 R26/3900D R08/0900U BCFG SCT005 07/07 Q1021 BECMG 0200 FG VV///
04:30
L
7 °C 500 m - 110° 110° 3 kt METAR LFQQ 040230Z AUTO 11003KT 2100 0500 R26/3300D R08/4200N BCFG FEW004 07/07 Q1022 BECMG 0200 FG VV///
04:00
L
8 °C 1 km - 110° 110° 3 kt METAR LFQQ 040200Z AUTO 11003KT 1800 1000 R26/2100U R08/1300U BR FEW003 08/08 Q1022 NOSIG
03:30
L
7 °C 800 m - 140° 140° 3 kt METAR LFQQ 040130Z AUTO 14003KT 1400 0800 R26/1400D R08/P5000 BCFG NSC 07/07 Q1022 BECMG 1800 BR
03:00
L
8 °C 1,2 km - 150° 150° 2 kt METAR LFQQ 040100Z AUTO 15002KT 1600 1200 R26/1600D R08/3900D BR NSC 08/08 Q1023 NOSIG
02:30
L
8 °C 650 m - 120° 120° 3 kt METAR LFQQ 040030Z AUTO 12003KT 3100 0650 R26/3500U R08/0900U BCFG FEW003 08/08 Q1023 BECMG 1800 BR
02:00
L
8 °C 500 m - 120° 120° 2 kt METAR LFQQ 040000Z AUTO 12002KT 1300 0500 R26/0650D R08/0900N BCFG NSC 08/08 Q1023 BECMG 1800 BR
01:30
L
9 °C 800 m - 200° 200° 1 kt METAR LFQQ 032330Z AUTO 20001KT 4400 0800 R26/3200D R08/1500D BCFG NSC 09/08 Q1023 BECMG 1800 BR
01:00
I
9 °C 2,7 km - Var Var 2 kt METAR LFQQ 032300Z AUTO VRB02KT 6000 2700 NSC 09/08 Q1024 BECMG 1800 BR
00:30
M
9 °C 6 km - 150° 150° 3 kt METAR LFQQ 032230Z AUTO 15003KT 6000 NSC 09/08 Q1023 BECMG 1800 BR
00:00
M
9 °C 7 km - 150° 150° 3 kt METAR LFQQ 032200Z AUTO 15003KT 7000 NSC 09/08 Q1024 NOSIG

2022年10月3日

时间 代码 天气 温度 能见度 天花板 METAR/SPECI
23:30
I
10 °C 3,3 km - 170° 170° 2 kt METAR LFQQ 032130Z AUTO 17002KT 9999 3300 NSC 10/09 Q1024 NOSIG
23:00
L
11 °C 1,2 km - 220° 220° 3 kt METAR LFQQ 032100Z AUTO 22003KT 9999 1200 R26/2100D R08/P5000 NSC 11/10 Q1024 NOSIG
22:30
V
10 °C 10 km+ - Var Var 1 kt METAR LFQQ 032030Z AUTO VRB01KT CAVOK 10/09 Q1025 NOSIG
22:00
V
10 °C 10 km+ - 130° 130° 2 kt METAR LFQQ 032000Z AUTO 13002KT CAVOK 10/09 Q1025 NOSIG
21:30
V
11 °C 10 km+ - 170° 170° 2 kt METAR LFQQ 031930Z AUTO 17002KT CAVOK 11/10 Q1025 NOSIG
21:00
V
12 °C 10 km+ - 180° 180° 3 kt METAR LFQQ 031900Z AUTO 18003KT CAVOK 12/10 Q1025 NOSIG
20:30
V
12 °C 10 km+ - Var Var 2 kt METAR LFQQ 031830Z AUTO VRB02KT CAVOK 12/10 Q1025 NOSIG
20:00
V
13 °C 10 km+ - 170° 170° 3 kt METAR LFQQ 031800Z AUTO 17003KT CAVOK 13/10 Q1025 NOSIG
19:30
V
14 °C 10 km+ - 180° 180° 4 kt METAR LFQQ 031730Z AUTO 18004KT CAVOK 14/10 Q1025 NOSIG
19:00
V
14 °C 10 km+ - 200° 200° 5 kt METAR LFQQ 031700Z AUTO 20005KT CAVOK 14/11 Q1025 NOSIG
18:30
V
15 °C 10 km+ - 210° 210° 7 kt METAR LFQQ 031630Z AUTO 21007KT CAVOK 15/11 Q1025 NOSIG
18:00
V
17 °C 10 km+ 18.000 ft 170° 170° 6 kt METAR LFQQ 031600Z AUTO 17006KT 9999 FEW028 OVC180 17/11 Q1025 NOSIG
17:30
V
16 °C 10 km+ 18.000 ft 180° 180° 5 kt METAR LFQQ 031530Z AUTO 18005KT 9999 FEW031 BKN180 16/11 Q1025 NOSIG
17:00
V
17 °C 10 km+ 17.000 ft 180° 180° 6 kt METAR LFQQ 031500Z AUTO 18006KT 9999 FEW030 BKN170 17/11 Q1026 NOSIG
较旧的数据

我们和第三方通过cookies跟踪您在我们网站上的上网行为。如果您继续,我们认为您同意我们的cookie政策。 了解更多